Time;durP1;ratioP1;P1;durP2;ratioP2;P2;SDS_P1;SDS_P2;PMS_P1;PMS_P2;Temp;Humidity;BMP_temperature;BMP_pressure;BME280_temperature;BME280_humidity;BME280_pressure;Samples;Min_cycle;Max_cycle;Signal;HPM_P1;HPM_P2
2024/02/17 00:02:16;;;;;;;3.07;2.67;;;11.40;99.90;11.40;100894.00;;;;4905735;28;109674;-69
2024/02/17 00:04:42;;;;;;;6.00;3.93;;;11.50;99.90;11.50;100886.00;;;;4910612;28;108309;-69
2024/02/17 00:07:08;;;;;;;4.67;3.07;;;11.50;99.90;11.50;100890.00;;;;4906136;28;117542;-69
2024/02/17 00:09:34;;;;;;;4.93;3.30;;;11.50;99.90;11.50;100900.00;;;;4907642;28;116991;-69
2024/02/17 00:12:00;;;;;;;7.13;3.63;;;11.50;99.90;11.50;100896.00;;;;4911278;28;88239;-69
2024/02/17 00:14:25;;;;;;;3.70;3.40;;;11.60;99.90;11.50;100894.00;;;;4909633;28;107173;-70
2024/02/17 00:16:51;;;;;;;8.67;3.73;;;11.50;99.90;11.50;100893.00;;;;4907563;28;88337;-69
2024/02/17 00:19:17;;;;;;;5.07;4.00;;;11.50;99.90;11.50;100895.00;;;;4906995;28;111718;-67
2024/02/17 00:21:43;;;;;;;5.33;4.33;;;11.50;99.90;11.50;100904.00;;;;4906630;28;110725;-69
2024/02/17 00:24:08;;;;;;;6.53;3.63;;;11.60;99.90;11.50;100902.00;;;;4908271;28;108837;-67
2024/02/17 00:26:34;;;;;;;4.63;4.23;;;11.60;99.90;11.50;100904.00;;;;4909127;28;88560;-68
2024/02/17 00:29:00;;;;;;;5.73;4.30;;;11.60;99.90;11.60;100906.00;;;;4908197;28;88595;-69
2024/02/17 00:31:26;;;;;;;5.97;3.77;;;11.60;99.90;11.50;100915.00;;;;4907374;28;111595;-68
2024/02/17 00:33:52;;;;;;;3.87;3.47;;;11.60;99.90;11.60;100913.00;;;;4908988;28;87886;-67
2024/02/17 00:36:18;;;;;;;5.00;3.50;;;11.60;99.90;11.60;100909.00;;;;4906851;28;117819;-67
2024/02/17 00:38:44;;;;;;;4.00;3.33;;;11.60;99.90;11.60;100919.00;;;;4906602;28;88578;-69
2024/02/17 00:41:10;;;;;;;9.53;4.27;;;11.60;99.90;11.60;100909.00;;;;4908833;28;104528;-68
2024/02/17 00:43:36;;;;;;;5.90;4.17;;;11.60;99.90;11.60;100904.00;;;;4905830;28;108075;-67
2024/02/17 00:46:02;;;;;;;6.03;3.87;;;11.60;99.90;11.60;100909.00;;;;4905539;28;118565;-67
2024/02/17 00:48:28;;;;;;;7.03;4.60;;;11.60;99.90;11.60;100909.00;;;;4908370;28;89223;-68
2024/02/17 00:50:54;;;;;;;4.93;3.87;;;11.60;99.90;11.60;100907.00;;;;4906632;28;87856;-67
2024/02/17 00:53:21;;;;;;;5.60;4.00;;;11.70;99.90;11.60;100918.00;;;;4907877;28;107645;-69
2024/02/17 00:55:46;;;;;;;4.67;3.30;;;11.60;99.90;11.60;100921.00;;;;4908611;28;108805;-70
2024/02/17 00:58:12;;;;;;;7.40;3.73;;;11.70;99.90;11.60;100924.00;;;;4906820;28;116121;-68
2024/02/17 01:00:38;;;;;;;5.77;4.27;;;11.70;99.90;11.60;100931.00;;;;4909596;28;109223;-69
2024/02/17 01:03:07;;;;;;;4.23;3.20;;;11.70;99.90;11.60;100935.00;;;;4908939;28;107695;-68
2024/02/17 01:05:32;;;;;;;5.60;3.87;;;11.70;99.90;11.60;100947.00;;;;4904676;28;116544;-68
2024/02/17 01:07:58;;;;;;;6.63;3.87;;;11.70;99.90;11.60;100949.00;;;;4905706;28;87833;-68
2024/02/17 01:10:24;;;;;;;7.23;3.93;;;11.70;99.90;11.60;100951.00;;;;4907807;28;110553;-69
2024/02/17 01:12:49;;;;;;;5.77;3.63;;;11.60;99.90;11.60;100957.00;;;;4903932;28;109376;-68
2024/02/17 01:15:15;;;;;;;5.87;4.53;;;11.60;99.90;11.60;100958.00;;;;4905608;28;115859;-67
2024/02/17 01:17:41;;;;;;;6.50;3.80;;;11.70;99.90;11.60;100954.00;;;;4904678;28;115940;-69
2024/02/17 01:20:07;;;;;;;6.00;4.43;;;11.60;99.90;11.60;100957.00;;;;4906326;28;112518;-70
2024/02/17 01:22:33;;;;;;;5.97;4.07;;;12.10;99.90;11.60;100969.00;;;;4907781;28;87875;-69
2024/02/17 01:24:58;;;;;;;7.47;4.37;;;11.60;99.90;11.60;100970.00;;;;4906556;28;118004;-69
2024/02/17 01:27:24;;;;;;;5.77;4.33;;;11.70;99.90;11.60;100966.00;;;;4905890;28;115827;-68
2024/02/17 01:29:50;;;;;;;6.27;4.57;;;11.70;99.90;11.60;100976.00;;;;4906825;28;110293;-70
2024/02/17 01:32:16;;;;;;;6.20;4.27;;;11.70;99.90;11.60;100979.00;;;;4907087;28;101612;-68
2024/02/17 01:34:41;;;;;;;6.13;4.67;;;11.70;99.90;11.60;100972.00;;;;4907881;28;116167;-70
2024/02/17 01:37:07;;;;;;;6.57;4.90;;;11.70;99.90;11.60;100989.00;;;;4907194;28;90830;-68
2024/02/17 01:39:33;;;;;;;8.70;5.37;;;11.60;99.90;11.60;100988.00;;;;4906089;28;87884;-67
2024/02/17 01:41:58;;;;;;;6.00;4.47;;;11.60;99.90;11.60;100985.00;;;;4903845;28;108926;-69
2024/02/17 01:44:27;;;;;;;6.40;3.90;;;11.60;99.90;11.60;100983.00;;;;4908751;28;116847;-68
2024/02/17 01:46:53;;;;;;;7.37;4.70;;;11.60;99.90;11.60;100984.00;;;;4909196;28;88884;-67
2024/02/17 01:49:20;;;;;;;5.80;4.17;;;11.60;99.90;11.60;100978.00;;;;4908003;28;88059;-67
2024/02/17 01:51:46;;;;;;;8.37;5.03;;;11.60;99.90;11.50;100979.00;;;;4907348;28;107619;-68
2024/02/17 01:54:13;;;;;;;5.67;4.47;;;11.60;99.90;11.50;100977.00;;;;4892356;28;117937;-68
2024/02/17 01:56:40;;;;;;;8.07;4.77;;;11.60;99.90;11.50;100978.00;;;;4908499;28;88117;-69
2024/02/17 01:59:06;;;;;;;4.77;4.00;;;11.50;99.90;11.50;100979.00;;;;4904623;28;110049;-69
2024/02/17 02:01:33;;;;;;;3.73;3.30;;;11.50;99.90;11.50;100983.00;;;;4907689;28;107756;-69
2024/02/17 02:03:59;;;;;;;5.93;4.53;;;11.60;99.90;11.50;100982.00;;;;4906993;28;89118;-69
2024/02/17 02:06:24;;;;;;;5.83;3.80;;;11.60;99.90;11.50;100994.00;;;;4907389;28;118018;-68
2024/02/17 02:08:51;;;;;;;5.03;4.23;;;11.60;99.90;11.50;100999.00;;;;4905087;28;107344;-68
2024/02/17 02:11:18;;;;;;;10.10;4.90;;;11.50;99.90;11.50;101010.00;;;;4908392;28;88615;-67
2024/02/17 02:13:45;;;;;;;7.43;4.67;;;11.60;99.90;11.40;101006.00;;;;4909054;28;117489;-70
2024/02/17 02:16:10;;;;;;;7.63;5.20;;;11.50;99.90;11.40;101015.00;;;;4906585;28;97967;-69
2024/02/17 02:18:36;;;;;;;5.07;4.43;;;11.50;99.90;11.40;101007.00;;;;4907306;28;88279;-69
2024/02/17 02:21:03;;;;;;;7.70;4.60;;;11.50;99.90;11.40;101005.00;;;;4908682;28;89466;-68
2024/02/17 02:23:29;;;;;;;8.30;5.13;;;11.40;99.90;11.40;101024.00;;;;4908867;28;88334;-68
2024/02/17 02:25:55;;;;;;;7.47;5.13;;;11.40;99.90;11.40;101018.00;;;;4906174;28;87825;-68
2024/02/17 02:28:23;;;;;;;7.17;5.53;;;11.40;99.90;11.40;101014.00;;;;4906464;28;87934;-67
2024/02/17 02:30:50;;;;;;;6.80;4.57;;;11.40;99.90;11.30;101008.00;;;;4905913;28;89176;-68
2024/02/17 02:33:15;;;;;;;7.40;5.13;;;11.40;99.90;11.30;101018.00;;;;4902918;28;88928;-68
2024/02/17 02:35:41;;;;;;;6.73;5.00;;;11.40;99.90;11.30;101008.00;;;;4909134;28;110102;-67
2024/02/17 02:38:07;;;;;;;6.70;4.67;;;11.40;99.90;11.30;101020.00;;;;4905249;28;109172;-68
2024/02/17 02:40:32;;;;;;;7.83;5.77;;;11.30;99.90;11.30;101027.00;;;;4906172;28;108799;-69
2024/02/17 02:42:58;;;;;;;11.03;5.40;;;11.30;99.90;11.30;101025.00;;;;4906037;28;117491;-68
2024/02/17 02:45:24;;;;;;;9.90;5.20;;;11.30;99.90;11.20;101035.00;;;;4906611;28;117701;-67
2024/02/17 02:47:50;;;;;;;7.93;5.77;;;11.30;99.90;11.20;101035.00;;;;4904231;28;111087;-68
2024/02/17 02:50:16;;;;;;;7.87;5.70;;;11.30;99.90;11.20;101020.00;;;;4904553;28;92847;-68
2024/02/17 02:52:42;;;;;;;8.67;5.20;;;11.30;99.90;11.20;101037.00;;;;4904001;28;99323;-67
2024/02/17 02:55:08;;;;;;;6.73;5.50;;;11.30;99.90;11.20;101040.00;;;;4904513;28;116684;-67
2024/02/17 02:57:33;;;;;;;8.70;5.50;;;11.30;99.90;11.20;101036.00;;;;4908121;28;101384;-67
2024/02/17 02:59:59;;;;;;;10.23;5.33;;;11.20;99.90;11.20;101039.00;;;;4908088;28;87815;-66
2024/02/17 03:02:25;;;;;;;8.47;5.37;;;11.20;99.90;11.10;101039.00;;;;4903863;28;117736;-66
2024/02/17 03:04:52;;;;;;;7.90;5.50;;;11.20;99.90;11.10;101045.00;;;;4905738;28;116859;-66
2024/02/17 03:07:18;;;;;;;8.80;4.33;;;11.20;99.90;11.10;101053.00;;;;4903799;28;89797;-68
2024/02/17 03:09:44;;;;;;;7.30;5.07;;;11.20;99.90;11.10;101059.00;;;;4904408;28;97478;-68
2024/02/17 03:12:10;;;;;;;6.20;4.97;;;11.20;99.90;11.10;101059.00;;;;4907027;28;87588;-68
2024/02/17 03:14:37;;;;;;;6.20;5.03;;;11.30;99.90;11.10;101061.00;;;;4906830;28;88146;-68
2024/02/17 03:17:04;;;;;;;9.40;5.53;;;11.20;99.90;11.10;101072.00;;;;4903759;28;87947;-67
2024/02/17 03:19:29;;;;;;;9.00;5.03;;;11.20;99.90;11.10;101071.00;;;;4902854;28;89031;-67
2024/02/17 03:21:55;;;;;;;8.97;4.60;;;11.10;99.90;11.10;101067.00;;;;4903879;28;118351;-67
2024/02/17 03:24:21;;;;;;;9.93;5.27;;;11.10;99.90;11.00;101061.00;;;;4906623;28;107984;-66
2024/02/17 03:26:47;;;;;;;8.63;5.20;;;11.10;99.90;11.00;101075.00;;;;4905742;28;110762;-68
2024/02/17 03:29:13;;;;;;;8.83;5.00;;;11.10;99.90;11.00;101078.00;;;;4908192;28;88611;-69
2024/02/17 03:31:39;;;;;;;8.63;5.30;;;11.10;99.90;11.00;101091.00;;;;4907590;28;118825;-67
2024/02/17 03:34:05;;;;;;;9.10;4.80;;;11.00;99.90;11.00;101089.00;;;;4904552;28;88078;-67
2024/02/17 03:36:33;;;;;;;9.37;4.77;;;11.10;99.90;10.90;101102.00;;;;4907351;28;87417;-67
2024/02/17 03:38:58;;;;;;;4.47;3.73;;;11.00;99.90;10.90;101104.00;;;;4907760;28;88055;-67
2024/02/17 03:41:26;;;;;;;6.23;4.80;;;11.00;99.90;10.90;101103.00;;;;4903125;28;117956;-67
2024/02/17 03:43:52;;;;;;;6.37;4.67;;;11.00;99.90;10.90;101100.00;;;;4903836;28;88974;-67
2024/02/17 03:46:18;;;;;;;6.57;4.50;;;11.00;99.90;10.90;101101.00;;;;4905584;28;100331;-67
2024/02/17 03:48:44;;;;;;;11.43;4.67;;;10.90;99.90;10.90;101112.00;;;;4920530;28;87818;-67
2024/02/17 03:51:09;;;;;;;6.33;4.20;;;11.00;99.90;10.80;101117.00;;;;4902767;28;88643;-68
2024/02/17 03:53:35;;;;;;;9.80;5.90;;;11.00;99.90;10.80;101113.00;;;;4904447;28;116955;-68
2024/02/17 03:56:02;;;;;;;8.57;5.37;;;10.90;99.90;10.80;101120.00;;;;4905266;28;111697;-67
2024/02/17 03:58:28;;;;;;;6.40;4.77;;;10.90;99.90;10.80;101121.00;;;;4903826;28;87937;-68
2024/02/17 04:00:53;;;;;;;8.97;5.53;;;10.90;99.90;10.80;101119.00;;;;4903457;28;109966;-69
2024/02/17 04:03:19;;;;;;;8.03;4.90;;;10.90;99.90;10.80;101121.00;;;;4905371;28;88352;-68
2024/02/17 04:05:45;;;;;;;7.63;5.43;;;10.90;99.90;10.80;101120.00;;;;4907522;28;110352;-68
2024/02/17 04:08:10;;;;;;;7.90;4.67;;;10.90;99.90;10.80;101149.00;;;;4909181;28;92800;-68
2024/02/17 04:10:37;;;;;;;10.37;5.83;;;10.90;99.90;10.80;101144.00;;;;4910782;28;94217;-67
2024/02/17 04:13:03;;;;;;;8.17;5.27;;;10.90;99.90;10.80;101137.00;;;;4910866;28;115363;-69
2024/02/17 04:15:28;;;;;;;6.20;4.17;;;10.90;99.90;10.80;101144.00;;;;4909248;28;101027;-70
2024/02/17 04:17:54;;;;;;;6.87;5.13;;;10.90;99.90;10.80;101145.00;;;;4908412;28;108375;-69
2024/02/17 04:20:20;;;;;;;6.10;4.83;;;10.90;99.90;10.80;101156.00;;;;4907710;28;88790;-67
2024/02/17 04:22:46;;;;;;;4.87;3.77;;;10.80;99.90;10.70;101165.00;;;;4906313;28;117922;-67
2024/02/17 04:25:12;;;;;;;6.77;3.83;;;10.90;99.90;10.80;101168.00;;;;4910071;28;110397;-68
2024/02/17 04:27:38;;;;;;;8.23;5.00;;;10.80;99.90;10.70;101173.00;;;;4905915;28;87954;-68
2024/02/17 04:30:05;;;;;;;6.43;5.10;;;10.90;99.90;10.70;101173.00;;;;4909530;28;88861;-68
2024/02/17 04:32:30;;;;;;;10.37;6.40;;;10.80;99.90;10.70;101185.00;;;;4908858;28;108557;-69
2024/02/17 04:34:56;;;;;;;8.57;5.00;;;10.90;99.90;10.70;101168.00;;;;4907439;28;108645;-69
2024/02/17 04:37:22;;;;;;;8.23;4.53;;;10.90;99.90;10.70;101168.00;;;;4909646;28;87891;-68
2024/02/17 04:39:50;;;;;;;8.87;5.10;;;10.80;99.90;10.70;101173.00;;;;4912771;28;88643;-68
2024/02/17 04:42:16;;;;;;;7.33;4.53;;;10.80;99.90;10.70;101178.00;;;;4906040;28;117448;-67
2024/02/17 04:44:42;;;;;;;8.93;4.57;;;10.80;99.90;10.70;101183.00;;;;4907724;28;111391;-69
2024/02/17 04:47:07;;;;;;;5.53;4.37;;;10.80;99.90;10.60;101181.00;;;;4905888;28;107028;-69
2024/02/17 04:49:34;;;;;;;4.77;4.07;;;10.70;99.90;10.60;101187.00;;;;4907462;28;87826;-69
2024/02/17 04:52:00;;;;;;;7.37;5.27;;;10.70;99.90;10.60;101194.00;;;;4905912;28;116588;-69
2024/02/17 04:54:26;;;;;;;6.13;4.77;;;10.70;99.90;10.60;101191.00;;;;4907792;28;111447;-68
2024/02/17 04:56:51;;;;;;;8.43;4.33;;;10.70;99.90;10.60;101197.00;;;;4924223;28;88842;-68
2024/02/17 04:59:17;;;;;;;4.73;3.73;;;10.70;99.90;10.50;101199.00;;;;4904061;28;117821;-68
2024/02/17 05:01:44;;;;;;;5.97;4.70;;;10.70;99.90;10.50;101195.00;;;;4906481;28;88562;-69
2024/02/17 05:04:10;;;;;;;6.13;4.40;;;10.60;99.90;10.50;101211.00;;;;4907851;28;88421;-69
2024/02/17 05:06:36;;;;;;;10.27;4.93;;;10.60;99.90;10.50;101209.00;;;;4908587;28;109597;-70
2024/02/17 05:09:01;;;;;;;7.40;4.60;;;10.60;99.90;10.50;101205.00;;;;4905524;28;95018;-69
2024/02/17 05:11:28;;;;;;;4.03;3.63;;;10.60;99.90;10.50;101212.00;;;;4906034;28;116328;-68
2024/02/17 05:13:53;;;;;;;5.37;3.00;;;10.60;99.90;10.40;101215.00;;;;4906106;28;110594;-68
2024/02/17 05:16:19;;;;;;;5.80;4.40;;;10.60;99.90;10.40;101211.00;;;;4906047;28;109955;-69
2024/02/17 05:18:45;;;;;;;4.80;4.30;;;10.50;99.90;10.40;101221.00;;;;4906007;28;118810;-69
2024/02/17 05:21:10;;;;;;;5.53;3.93;;;10.60;99.90;10.40;101227.00;;;;4906199;28;116963;-68
2024/02/17 05:23:36;;;;;;;8.43;4.20;;;10.50;99.90;10.40;101233.00;;;;4908512;28;88109;-69
2024/02/17 05:26:02;;;;;;;7.10;4.57;;;10.50;99.90;10.40;101227.00;;;;4909725;28;108890;-70
2024/02/17 05:28:28;;;;;;;6.23;4.30;;;10.50;99.90;10.40;101223.00;;;;4906113;28;110981;-70
2024/02/17 05:30:54;;;;;;;6.40;4.43;;;10.50;99.90;10.40;101225.00;;;;4907780;28;104911;-69
2024/02/17 05:33:20;;;;;;;4.33;3.57;;;10.50;99.90;10.50;101225.00;;;;4908717;28;88252;-70
2024/02/17 05:35:46;;;;;;;4.43;2.93;;;10.50;99.90;10.50;101234.00;;;;4908139;28;108707;-70
2024/02/17 05:38:12;;;;;;;4.27;3.80;;;10.60;99.90;10.50;101237.00;;;;4905764;28;87245;-68
2024/02/17 05:40:38;;;;;;;5.53;3.80;;;10.60;99.90;10.50;101248.00;;;;4904633;28;107745;-69
2024/02/17 05:43:04;;;;;;;6.80;4.47;;;10.50;99.90;10.50;101253.00;;;;4904545;28;111242;-69
2024/02/17 05:45:31;;;;;;;5.30;3.83;;;10.60;99.90;10.50;101246.00;;;;4906855;28;88857;-69
2024/02/17 05:47:56;;;;;;;5.23;3.43;;;10.60;99.90;10.50;101244.00;;;;4907441;28;96169;-69
2024/02/17 05:50:22;;;;;;;3.53;3.13;;;10.60;99.90;10.50;101255.00;;;;4907037;28;115822;-70
2024/02/17 05:52:49;;;;;;;6.10;3.70;;;10.60;99.90;10.50;101268.00;;;;4907880;28;87753;-69
2024/02/17 05:55:16;;;;;;;4.70;4.00;;;10.60;99.90;10.40;101262.00;;;;4906024;28;91186;-70
2024/02/17 05:57:42;;;;;;;3.33;3.03;;;10.50;99.90;10.30;101255.00;;;;4909223;28;88224;-70
2024/02/17 06:00:09;;;;;;;6.70;3.47;;;10.50;99.90;10.20;101252.00;;;;4906383;28;109143;-70
2024/02/17 06:02:34;;;;;;;5.97;4.07;;;10.30;99.90;10.10;101265.00;;;;4905095;28;98596;-70
2024/02/17 06:05:02;;;;;;;5.10;3.00;;;10.20;99.90;10.00;101271.00;;;;4908188;28;90239;-70
2024/02/17 06:07:28;;;;;;;9.60;3.93;;;10.10;99.90;9.90;101263.00;;;;4909292;28;90040;-69
2024/02/17 06:09:54;;;;;;;4.43;3.07;;;9.60;99.90;9.80;101265.00;;;;4905164;28;89165;-69
2024/02/17 06:12:20;;;;;;;3.90;3.40;;;10.00;99.90;9.70;101271.00;;;;4904625;28;111883;-69
2024/02/17 06:14:45;;;;;;;5.07;3.73;;;9.80;99.90;9.60;101265.00;;;;4910421;28;88203;-69
2024/02/17 06:17:19;;;;;;;4.07;3.17;;;9.80;99.90;9.50;101277.00;;;;4914550;27;89202;-70
2024/02/17 06:22:28;;;;;;;3.93;2.77;;;9.60;99.90;9.30;101282.00;;;;4923701;28;87817;-69
2024/02/17 06:24:54;;;;;;;5.93;3.93;;;9.40;99.90;9.20;101302.00;;;;4925604;28;108454;-69
2024/02/17 06:27:20;;;;;;;5.20;2.93;;;9.40;99.90;9.10;101302.00;;;;4926925;28;87954;-69
2024/02/17 06:29:45;;;;;;;6.83;3.43;;;9.30;99.90;9.10;101308.00;;;;4925291;28;115861;-69
2024/02/17 06:32:11;;;;;;;7.47;3.30;;;9.30;99.90;9.00;101312.00;;;;4924997;28;109933;-70
2024/02/17 06:34:41;;;;;;;3.90;2.60;;;9.20;99.90;9.00;101320.00;;;;4924819;28;88957;-70
2024/02/17 06:37:06;;;;;;;8.60;4.73;;;9.20;99.90;9.00;101320.00;;;;4934039;28;87961;-69
2024/02/17 06:39:32;;;;;;;3.63;3.30;;;9.20;99.90;9.00;101324.00;;;;4921557;28;117336;-69
2024/02/17 06:41:57;;;;;;;4.77;2.90;;;9.10;99.90;9.00;101337.00;;;;4920112;28;87735;-69
2024/02/17 06:44:25;;;;;;;3.93;3.33;;;9.10;99.90;8.90;101343.00;;;;4923341;28;107351;-69
2024/02/17 06:46:53;;;;;;;7.70;4.23;;;9.00;99.90;8.90;101342.00;;;;4921906;28;88091;-70
2024/02/17 06:49:19;;;;;;;7.33;3.70;;;9.10;99.90;8.90;101340.00;;;;4919909;28;88642;-69
2024/02/17 06:51:45;;;;;;;5.60;4.37;;;9.10;99.90;8.90;101352.00;;;;4921303;28;98675;-70
2024/02/17 06:54:10;;;;;;;5.43;4.20;;;8.90;99.90;9.00;101351.00;;;;4917101;28;87980;-70
2024/02/17 06:56:36;;;;;;;5.87;3.87;;;9.10;99.90;9.10;101360.00;;;;4920235;28;117117;-70
2024/02/17 06:59:02;;;;;;;6.97;4.40;;;9.20;99.90;9.20;101359.00;;;;4918344;28;117347;-70
2024/02/17 07:01:27;;;;;;;7.67;4.30;;;9.30;99.90;9.20;101359.00;;;;4921898;28;87913;-70
2024/02/17 07:03:56;;;;;;;7.50;4.73;;;9.30;99.90;9.30;101370.00;;;;4919233;28;87940;-69
2024/02/17 07:06:22;;;;;;;10.17;4.87;;;9.40;99.90;9.40;101373.00;;;;4919864;28;117571;-68
2024/02/17 07:08:48;;;;;;;5.83;4.43;;;9.50;99.90;9.50;101368.00;;;;4920265;28;100458;-68
2024/02/17 07:11:14;;;;;;;6.37;4.80;;;9.60;99.90;9.50;101374.00;;;;4920743;28;87709;-70
2024/02/17 07:13:43;;;;;;;6.07;3.60;;;9.60;99.90;9.60;101374.00;;;;4920524;28;88021;-69
2024/02/17 07:16:09;;;;;;;6.63;4.67;;;9.60;99.90;9.60;101375.00;;;;4920278;28;87360;-69
2024/02/17 07:18:37;;;;;;;9.00;5.13;;;9.60;99.90;9.50;101380.00;;;;4921021;28;104765;-69
2024/02/17 07:21:04;;;;;;;10.57;4.93;;;9.60;99.90;9.50;101379.00;;;;4919856;28;88284;-70
2024/02/17 07:23:30;;;;;;;10.57;5.53;;;9.60;99.90;9.40;101382.00;;;;4921053;28;88965;-70
2024/02/17 07:25:59;;;;;;;5.90;5.30;;;9.60;99.90;9.40;101391.00;;;;4920385;28;88190;-70
2024/02/17 07:28:25;;;;;;;6.00;5.37;;;9.50;99.90;9.40;101396.00;;;;4918492;28;104692;-70
2024/02/17 07:30:51;;;;;;;8.67;5.00;;;9.50;99.90;9.60;101404.00;;;;4918413;28;104288;-70
2024/02/17 07:33:16;;;;;;;8.83;6.03;;;9.60;99.90;9.70;101410.00;;;;4932343;28;107734;-70
2024/02/17 07:35:45;;;;;;;9.80;6.30;;;9.70;99.90;9.90;101412.00;;;;4922280;28;87989;-69
2024/02/17 07:38:11;;;;;;;9.23;6.63;;;9.90;99.90;10.10;101417.00;;;;4923861;28;89141;-69
2024/02/17 07:40:40;;;;;;;9.80;7.37;;;10.10;99.90;10.40;101418.00;;;;4925394;28;87074;-68
2024/02/17 07:43:05;;;;;;;9.60;7.27;;;10.40;99.90;10.70;101432.00;;;;4922265;28;88528;-68
2024/02/17 07:45:31;;;;;;;11.20;5.83;;;10.60;99.90;10.90;101425.00;;;;4923406;28;117585;-67
2024/02/17 07:47:57;;;;;;;9.03;5.30;;;10.90;99.90;11.00;101433.00;;;;4922533;28;89019;-68
2024/02/17 07:50:23;;;;;;;10.13;6.63;;;11.10;99.90;11.00;101431.00;;;;4926169;28;88086;-68
2024/02/17 07:52:49;;;;;;;12.30;6.77;;;11.10;99.90;11.10;101436.00;;;;4929654;28;88025;-68
2024/02/17 07:55:14;;;;;;;6.20;4.43;;;11.20;99.90;11.10;101443.00;;;;4925891;28;88478;-68
2024/02/17 07:57:40;;;;;;;16.33;6.80;;;11.10;99.90;11.10;101451.00;;;;4920885;28;115868;-68
2024/02/17 08:00:09;;;;;;;7.40;5.00;;;11.20;99.90;11.10;101458.00;;;;4922865;28;100478;-67
2024/02/17 08:02:37;;;;;;;8.90;5.63;;;11.20;99.90;11.00;101462.00;;;;4922989;28;95902;-68
2024/02/17 08:05:02;;;;;;;7.27;4.93;;;11.10;99.90;11.00;101464.00;;;;4924473;28;87702;-68
2024/02/17 08:07:28;;;;;;;8.73;4.10;;;11.10;99.90;10.90;101465.00;;;;4921713;28;105319;-68
2024/02/17 08:09:54;;;;;;;7.23;4.57;;;11.10;99.90;10.90;101469.00;;;;4923830;28;109698;-67
2024/02/17 08:12:20;;;;;;;6.43;4.57;;;11.00;99.90;10.80;101472.00;;;;4922758;28;109251;-68
2024/02/17 08:14:46;;;;;;;8.20;5.47;;;11.00;99.90;10.80;101468.00;;;;4926681;28;89175;-68
2024/02/17 08:17:11;;;;;;;7.87;5.07;;;12.20;99.90;11.00;101471.00;;;;4926104;28;87854;-67
2024/02/17 08:19:38;;;;;;;11.47;5.03;;;11.00;99.90;11.30;101479.00;;;;4926230;28;88228;-67
2024/02/17 08:22:04;;;;;;;8.77;4.87;;;11.20;99.90;11.50;101484.00;;;;4925095;28;87897;-67
2024/02/17 08:24:30;;;;;;;5.63;4.70;;;11.50;99.90;11.70;101486.00;;;;4922957;28;119224;-66
2024/02/17 08:26:56;;;;;;;6.57;5.10;;;11.70;99.90;12.10;101492.00;;;;4928693;28;116432;-66
2024/02/17 08:29:22;;;;;;;7.23;4.90;;;12.00;99.90;12.30;101499.00;;;;4926267;28;87128;-66
2024/02/17 08:31:49;;;;;;;6.70;4.90;;;12.20;99.90;12.60;101497.00;;;;4924154;28;88312;-68
2024/02/17 08:34:15;;;;;;;7.47;5.20;;;12.50;99.90;12.90;101488.00;;;;4940943;28;89938;-66
2024/02/17 08:36:41;;;;;;;11.37;5.17;;;12.80;99.90;13.10;101497.00;;;;4922428;28;89118;-68
2024/02/17 08:39:06;;;;;;;7.67;4.23;;;13.10;99.90;13.30;101504.00;;;;4923352;28;88798;-69
2024/02/17 08:41:32;;;;;;;5.90;3.87;;;13.30;99.90;13.30;101503.00;;;;4927837;28;88026;-68
2024/02/17 08:43:58;;;;;;;5.50;3.40;;;13.40;99.90;13.20;101496.00;;;;4922296;28;111050;-68
2024/02/17 08:46:23;;;;;;;5.30;3.40;;;13.30;99.90;13.10;101508.00;;;;4922780;28;117896;-69
2024/02/17 08:48:49;;;;;;;3.67;3.37;;;13.20;99.90;13.00;101510.00;;;;4920861;28;110361;-68
2024/02/17 08:51:15;;;;;;;3.67;3.13;;;13.10;99.90;12.90;101507.00;;;;4920550;28;101317;-68
2024/02/17 08:53:41;;;;;;;4.80;3.50;;;13.00;99.90;12.70;101509.00;;;;4927765;28;87916;-70
2024/02/17 08:56:06;;;;;;;5.40;3.22;;;12.90;99.90;12.60;101520.00;;;;4921005;28;116339;-69
2024/02/17 08:58:32;;;;;;;4.73;2.90;;;12.70;99.90;12.50;101529.00;;;;4924742;28;110409;-68
2024/02/17 09:00:58;;;;;;;4.73;3.07;;;12.60;99.90;12.40;101535.00;;;;4923777;28;109107;-68
2024/02/17 09:03:24;;;;;;;4.87;2.87;;;12.40;99.90;12.30;101524.00;;;;4925368;28;88686;-68
2024/02/17 09:05:49;;;;;;;7.30;3.17;;;12.40;99.90;12.20;101534.00;;;;4925433;28;88762;-70
2024/02/17 09:08:15;;;;;;;4.57;2.87;;;12.30;99.90;12.10;101544.00;;;;4924514;28;109896;-68
2024/02/17 09:10:41;;;;;;;2.53;2.10;;;12.20;99.90;12.00;101544.00;;;;4921118;28;109044;-69
2024/02/17 09:13:06;;;;;;;3.87;2.83;;;12.10;99.90;11.90;101545.00;;;;4923242;28;117968;-68
2024/02/17 09:15:32;;;;;;;3.77;2.73;;;12.00;99.90;11.80;101548.00;;;;4930092;28;87992;-70
2024/02/17 09:17:59;;;;;;;2.60;2.40;;;11.90;99.90;11.80;101543.00;;;;4926477;28;111188;-68
2024/02/17 09:20:25;;;;;;;4.67;2.13;;;11.80;99.90;11.70;101552.00;;;;4924411;28;88135;-68
2024/02/17 09:22:51;;;;;;;4.20;2.50;;;11.80;99.90;11.70;101561.00;;;;4926034;28;117719;-69
2024/02/17 09:25:19;;;;;;;5.70;2.43;;;11.70;99.90;11.60;101561.00;;;;4923058;28;117937;-71
2024/02/17 09:27:45;;;;;;;5.33;3.23;;;11.70;99.90;11.60;101555.00;;;;4922780;28;88053;-69
2024/02/17 09:30:11;;;;;;;7.53;3.10;;;11.70;99.90;11.60;101568.00;;;;4925927;28;88121;-68
2024/02/17 09:32:37;;;;;;;5.80;3.07;;;11.70;99.90;11.60;101564.00;;;;4923591;28;88483;-70
2024/02/17 09:35:02;;;;;;;6.07;3.30;;;11.70;99.90;11.60;101571.00;;;;4922179;28;115372;-68
2024/02/17 09:37:28;;;;;;;2.63;2.27;;;11.60;99.90;11.50;101583.00;;;;4907125;28;87973;-70
2024/02/17 09:39:54;;;;;;;4.53;2.77;;;11.60;99.90;11.50;101584.00;;;;4924080;28;87889;-69
2024/02/17 09:42:20;;;;;;;9.33;3.67;;;11.60;99.90;11.50;101576.00;;;;4921497;28;93542;-68
2024/02/17 09:44:46;;;;;;;6.23;3.30;;;11.60;99.90;11.50;101577.00;;;;4923821;28;97108;-71
2024/02/17 09:47:12;;;;;;;5.67;3.57;;;11.60;99.90;11.60;101586.00;;;;4920302;28;87961;-70
2024/02/17 09:49:39;;;;;;;9.37;4.43;;;13.00;99.90;11.60;101589.00;;;;4935608;28;108172;-69
2024/02/17 09:52:05;;;;;;;6.10;2.83;;;11.60;99.90;11.60;101584.00;;;;4920732;28;117971;-68
2024/02/17 09:54:32;;;;;;;5.67;3.07;;;11.80;99.90;11.60;101593.00;;;;4939070;28;88124;-69
2024/02/17 09:56:59;;;;;;;7.30;4.33;;;11.70;99.90;11.70;101585.00;;;;4925849;28;88017;-71
2024/02/17 09:59:25;;;;;;;3.20;2.77;;;11.80;99.90;11.70;101602.00;;;;4921119;28;87903;-68
2024/02/17 10:01:51;;;;;;;2.53;1.47;;;11.80;99.90;11.80;101605.00;;;;4918648;28;88852;-69
2024/02/17 10:04:17;;;;;;;3.47;2.17;;;11.80;99.90;11.80;101605.00;;;;4918398;28;117005;-73
2024/02/17 10:06:44;;;;;;;5.00;2.73;;;11.90;99.90;11.90;101605.00;;;;4940542;28;87303;-70
2024/02/17 10:09:19;;;;;;;3.87;2.67;;;11.90;99.90;11.90;101614.00;;;;4921334;28;87860;-71
2024/02/17 10:11:44;;;;;;;3.47;2.30;;;11.90;99.90;11.90;101619.00;;;;4923111;28;88391;-69
2024/02/17 10:14:12;;;;;;;6.60;2.77;;;12.00;99.90;12.00;101614.00;;;;4919673;28;117591;-71
2024/02/17 10:16:39;;;;;;;2.90;2.13;;;12.00;99.90;12.00;101621.00;;;;4922809;28;87795;-70
2024/02/17 10:19:05;;;;;;;2.80;1.90;;;12.10;99.90;12.10;101631.00;;;;4917529;28;88170;-69
2024/02/17 10:21:31;;;;;;;2.03;1.87;;;12.10;99.90;12.10;101626.00;;;;4908648;28;88297;-68
2024/02/17 10:23:56;;;;;;;6.47;2.47;;;12.10;99.90;12.10;101632.00;;;;4924155;28;117780;-69
2024/02/17 10:26:22;;;;;;;3.20;2.20;;;12.10;99.90;12.10;101631.00;;;;4922651;28;108268;-68
2024/02/17 10:28:58;;;;;;;2.97;2.10;;;12.10;99.90;12.10;101641.00;;;;4922323;28;88037;-70
2024/02/17 10:31:26;;;;;;;2.20;1.57;;;12.10;99.90;12.10;101636.00;;;;4925107;28;89828;-70
2024/02/17 10:33:51;;;;;;;3.17;2.10;;;12.20;99.90;12.10;101622.00;;;;4922399;28;108207;-69
2024/02/17 10:36:19;;;;;;;1.43;1.33;;;12.10;99.90;12.10;101646.00;;;;4921267;28;87876;-67
2024/02/17 10:38:46;;;;;;;4.23;1.93;;;12.20;99.90;12.10;101649.00;;;;4923928;28;88945;-69
2024/02/17 10:41:12;;;;;;;2.37;1.63;;;12.20;99.90;12.10;101650.00;;;;4923344;28;96039;-70
2024/02/17 10:43:43;;;;;;;2.77;1.80;;;12.10;99.90;12.00;101641.00;;;;4912296;28;88519;-70